Terminal Aerodrome Forecast
Issued by NWS Cleveland, OH

Home | Current Version | Previous Version | Text Only | Print | Product List | Glossary Off
Versions: 1 2 3 4 5 6 7 8 9 10 11 12 13 14 15 16 17 18 19

000
FTUS41 KCLE 130500
TAFCAK
TAF
KCAK 130539Z 1306/1406 18010KT P6SM SCT070 BKN200
     FM131330 21015G25KT P6SM SCT040 BKN150
     FM131700 21018G28KT P6SM SCT050 BKN200
     FM132300 21015KT P6SM SCT050 BKN250=

USA.gov is the U.S. government's official web portal to all federal, state and local government web resources and services.